Terminal Aerodrome Forecast
Issued by NWS

Home | Current Version | Previous Version | Text Only | Print | Product List | Glossary On
Versions: 1 2 3 4 5 6 7 8 9 10 11 12 13 14 15 16 17 18 19 20 21 22 23 24 25 26 27 28 29 30 31 32 33 34 35 36 37 38 39 40
345
FTUS45 KBOU 110315 AAA
TAFAPA
TAF AMD
KAPA 110315Z 1103/1124 17008KT P6SM SCT080 SCT150 BKN220
     FM111100 08009KT P6SM VCSH SCT030 BKN050 OVC120
     FM111300 12007KT P6SM VCSH SCT015 BKN030
     FM111700 15007KT P6SM SCT040 BKN120
     FM111900 06008KT P6SM SCT080
     FM112300 32008KT P6SM FEW080 SCT150=

USA.gov is the U.S. government's official web portal to all federal, state and local government web resources and services.